KSSF - San Antonio/Stinson, TX, US

Issued at 1121 UTC 16 Jul 2019
Updated at 1201 UTC 16 Jul 2019
Potential Impact None Slight Moderate High
Time1153Z 16/13Z 16/14Z 16/15Z 16/16Z 16/17Z 16/18Z 16/19Z 16/20Z 16/21Z 16/22Z 16/23Z 17/00Z 17/01Z>>
Type OBS PRVL PRVL PRVL PRVL PRVL PRVL PRVL PRVL PRVL PRVL PRVL PRVL PRVL
VIS 10 >6 >6 >6 >6 >6 >6 >6 >6 >6 >6 >6 >6 >6
CIG -- 15 15 -- -- -- -- -- -- -- -- -- -- --
Cover SCT BKN BKN SCT SCT SCT SCT SCT SCT SCT SCT SCT SCT SCT
FltCat VFR MVFR MVFR VFR VFR VFR VFR VFR VFR VFR VFR VFR VFR VFR
WX -- -- -- -- -- -- -- -- -- -- -- -- -- --
WDir 140 150 150 150 150 150 150 150 150 150 150 150 150 150
WSpd 5 7 7 12 12 12 12 12 12 12 12 12 12 12
WGst -- -- -- -- -- -- -- -- -- -- -- -- -- --
Raw TAF
KSSF 161121Z 1612/1712 15007KT P6SM BKN015
  FM161500 15012KT P6SM SCT250
  FM170900 13005KT P6SM BKN015


Raw METAR
KSSF 161153Z 14005KT 10SM FEW014 SCT021 26/23 A2997 RMK AO2 SLP134 T02610233 10278 20256 53006
KSSF 161053Z AUTO 16006KT 10SM BKN017 BKN022 27/23 A2997 RMK AO2 SLP133 T02670228
KSSF 161012Z AUTO 15005KT 10SM OVC016 27/23 A2995 RMK AO2 T02670228
KSSF 160953Z AUTO 14004KT 10SM OVC014 26/23 A2995 RMK AO2 SLP128 T02610228
KSSF 160951Z AUTO 14004KT 10SM OVC014 26/23 A2995 RMK AO2
KSSF 160937Z AUTO 14004KT 10SM OVC015 26/22 A2995 RMK AO2 T02610222

METAR Board
Radar Display
Forecast Discussion
For situational awareness. Not to be used for flight planning purposes.